createdAt,value
2019-05-16T00:01:03.125Z,101622.77
2019-05-16T00:03:34.109Z,101616.77
2019-05-16T00:06:08.438Z,101618.00
2019-05-16T00:08:38.998Z,101619.70
2019-05-16T00:11:09.989Z,101617.39
2019-05-16T00:13:40.990Z,101611.01
2019-05-16T00:16:11.877Z,101606.05
2019-05-16T00:18:42.934Z,101604.58
2019-05-16T00:21:13.960Z,101606.66
2019-05-16T00:23:45.008Z,101600.34
2019-05-16T00:26:15.968Z,101604.39
2019-05-16T00:28:48.503Z,101592.23
2019-05-16T00:31:19.641Z,101593.92
2019-05-16T00:33:50.623Z,101596.58
2019-05-16T00:36:21.638Z,101599.73
2019-05-16T00:38:52.620Z,101604.84
2019-05-16T00:41:23.495Z,101600.98
2019-05-16T00:43:54.475Z,101596.71
2019-05-16T00:46:27.816Z,101593.14
2019-05-16T00:48:59.020Z,101594.41
2019-05-16T00:51:30.662Z,101589.72
2019-05-16T00:54:01.684Z,101582.12
2019-05-16T00:56:32.610Z,101579.35
2019-05-16T00:59:03.592Z,101576.16
2019-05-16T01:01:34.536Z,101570.31
2019-05-16T01:04:08.026Z,101572.39
2019-05-16T01:06:39.074Z,101573.32
2019-05-16T01:09:10.052Z,101572.37
2019-05-16T01:11:41.122Z,101558.23
2019-05-16T01:14:12.157Z,101558.62
2019-05-16T01:16:43.182Z,101557.12
2019-05-16T01:19:14.227Z,101562.53
2019-05-16T01:21:45.235Z,101560.38
2019-05-16T01:24:18.624Z,101561.08
2019-05-16T01:26:48.868Z,101561.50
2019-05-16T01:29:19.903Z,101560.19
2019-05-16T01:31:50.944Z,101558.84
2019-05-16T01:34:22.074Z,101555.69
2019-05-16T01:36:53.012Z,101550.43
2019-05-16T01:39:23.953Z,101547.20
2019-05-16T01:41:54.947Z,101543.16
2019-05-16T01:44:25.945Z,101538.71
2019-05-16T01:46:58.561Z,101531.22
2019-05-16T01:49:32.597Z,101532.84
2019-05-16T01:52:03.876Z,101534.11
2019-05-16T01:54:34.897Z,101522.09
2019-05-16T01:57:08.101Z,101511.27
2019-05-16T01:59:38.994Z,101507.31
2019-05-16T02:02:09.903Z,101504.39
2019-05-16T02:04:40.884Z,101504.31
2019-05-16T02:07:11.904Z,101511.96
2019-05-16T02:09:42.914Z,101500.75
2019-05-16T02:12:13.887Z,101495.06
2019-05-16T02:14:44.839Z,101495.98
2019-05-16T02:17:18.138Z,101497.75
2019-05-16T02:19:48.673Z,101497.44
2019-05-16T02:22:19.760Z,101493.91
2019-05-16T02:24:50.704Z,101494.37
2019-05-16T02:27:21.632Z,101489.61
2019-05-16T02:29:52.536Z,101480.41
2019-05-16T02:32:23.548Z,101488.03
2019-05-16T02:34:54.660Z,101484.50
2019-05-16T02:37:33.370Z,101482.00
2019-05-16T02:40:01.399Z,101479.40
2019-05-16T02:42:33.755Z,101481.63
2019-05-16T02:45:04.081Z,101482.66
2019-05-16T02:47:35.417Z,101479.73
2019-05-16T02:50:06.726Z,101478.61
2019-05-16T02:52:41.018Z,101476.31
2019-05-16T02:55:11.694Z,101477.30
2019-05-16T02:57:43.124Z,101475.39
2019-05-16T03:00:14.085Z,101481.19
2019-05-16T03:02:45.543Z,101474.47
2019-05-16T03:05:16.560Z,101481.08
2019-05-16T03:07:47.837Z,101478.99
2019-05-16T03:10:20.305Z,101474.16
2019-05-16T03:12:52.047Z,101471.44
2019-05-16T03:15:23.106Z,101473.31
2019-05-16T03:17:54.060Z,101472.50
2019-05-16T03:20:25.037Z,101470.73
2019-05-16T03:22:57.246Z,101465.83
2019-05-16T03:30:35.755Z,101466.89
2019-05-16T03:33:07.248Z,101465.05
2019-05-16T03:35:43.913Z,101456.02
2019-05-16T03:38:12.241Z,101459.44
2019-05-16T03:40:43.333Z,101455.13
2019-05-16T03:43:14.237Z,101454.78
2019-05-16T03:45:45.274Z,101456.12
2019-05-16T03:48:16.251Z,101455.17
2019-05-16T03:50:50.478Z,101450.05
2019-05-16T03:53:21.195Z,101451.36
2019-05-16T03:55:52.358Z,101451.36
2019-05-16T03:58:23.317Z,101445.67
2019-05-16T04:00:55.900Z,101448.98
2019-05-16T04:06:01.080Z,101447.26
2019-05-16T04:08:30.717Z,101447.75
2019-05-16T04:11:01.363Z,101446.91
2019-05-16T04:16:04.984Z,101443.16
2019-05-16T04:21:06.627Z,101441.98
2019-05-16T04:26:11.636Z,101437.22
2019-05-16T04:31:15.201Z,101431.67
2019-05-16T04:36:16.555Z,101437.47
2019-05-16T04:41:21.159Z,101444.25
2019-05-16T04:48:50.804Z,101451.81
2019-05-16T04:53:51.063Z,101445.60
2019-05-16T04:56:25.051Z,101444.97
2019-05-16T04:58:53.183Z,101449.27
2019-05-16T05:01:41.051Z,101447.61
2019-05-16T05:04:14.390Z,101443.52
2019-05-16T05:06:42.241Z,101447.54
2019-05-16T05:09:32.393Z,101451.88
2019-05-16T05:12:04.516Z,101452.27
2019-05-16T05:14:36.584Z,101452.77
2019-05-16T05:17:10.470Z,101448.70
2019-05-16T05:19:41.364Z,101449.86
2019-05-16T05:22:12.564Z,101449.40
2019-05-16T05:24:43.487Z,101446.57
2019-05-16T05:27:14.481Z,101445.04
2019-05-16T05:29:46.004Z,101449.11
2019-05-16T05:32:17.044Z,101444.01
2019-05-16T05:34:50.197Z,101442.24
2019-05-16T05:37:20.868Z,101438.63
2019-05-16T05:39:51.889Z,101438.06
2019-05-16T05:42:22.871Z,101438.80
2019-05-16T05:44:53.838Z,101441.44
2019-05-16T05:47:24.833Z,101436.64
2019-05-16T05:49:55.729Z,101432.73
2019-05-16T05:52:26.753Z,101430.30
2019-05-16T05:55:00.572Z,101437.44
2019-05-16T05:57:30.409Z,101441.21
2019-05-16T06:00:01.534Z,101441.91
2019-05-16T06:02:32.503Z,101437.72
2019-05-16T06:05:03.518Z,101429.05
2019-05-16T06:07:34.444Z,101427.93
2019-05-16T06:10:07.188Z,101430.08
2019-05-16T06:12:40.556Z,101435.98
2019-05-16T06:15:12.960Z,101440.44
2019-05-16T06:17:44.564Z,101435.34
2019-05-16T06:20:15.659Z,101435.23
2019-05-16T06:22:46.743Z,101426.12
2019-05-16T06:25:22.204Z,101419.84
2019-05-16T06:27:51.121Z,101420.58
2019-05-16T06:30:22.321Z,101422.61
2019-05-16T06:32:53.271Z,101425.01
2019-05-16T06:35:24.285Z,101418.52
2019-05-16T06:37:55.648Z,101410.58
2019-05-16T06:40:26.689Z,101408.88
2019-05-16T06:43:00.223Z,101410.70
2019-05-16T06:45:32.059Z,101407.51
2019-05-16T06:48:03.235Z,101397.80
2019-05-16T06:50:34.290Z,101400.20
2019-05-16T06:53:06.230Z,101397.88
2019-05-16T06:55:37.309Z,101397.70
2019-05-16T06:58:12.031Z,101397.00
2019-05-16T07:00:43.252Z,101400.91
2019-05-16T07:03:14.457Z,101391.06
2019-05-16T07:05:45.724Z,101389.30
2019-05-16T07:08:17.207Z,101394.81
2019-05-16T07:10:50.475Z,101385.55
2019-05-16T07:13:20.950Z,101377.05
2019-05-16T07:15:51.847Z,101382.75
2019-05-16T07:18:22.782Z,101384.59
2019-05-16T07:20:53.875Z,101378.58
2019-05-16T07:23:24.947Z,101381.30
2019-05-16T07:25:56.043Z,101382.75
2019-05-16T07:28:27.103Z,101380.69
2019-05-16T07:31:00.479Z,101374.06
2019-05-16T07:33:31.418Z,101379.31
2019-05-16T07:36:02.525Z,101373.04
2019-05-16T07:38:33.577Z,101371.88
2019-05-16T07:41:04.757Z,101373.98
2019-05-16T07:43:35.825Z,101367.07
2019-05-16T07:46:06.760Z,101373.32
2019-05-16T07:48:40.172Z,101358.93
2019-05-16T07:51:10.643Z,101356.44
2019-05-16T07:53:41.655Z,101359.96
2019-05-16T07:56:12.634Z,101352.30
2019-05-16T07:58:43.634Z,101353.70
2019-05-16T08:01:14.669Z,101352.35
2019-05-16T08:03:46.654Z,101359.64
2019-05-16T08:06:20.157Z,101343.80
2019-05-16T08:08:51.310Z,101350.16
2019-05-16T08:11:30.450Z,101354.95
2019-05-16T08:14:01.101Z,101349.56
2019-05-16T08:16:32.283Z,101354.88
2019-05-16T08:19:03.377Z,101353.06
2019-05-16T08:21:34.395Z,101347.73
2019-05-16T08:24:08.070Z,101346.44
2019-05-16T08:26:42.919Z,101340.80
2019-05-16T08:29:13.406Z,101338.95
2019-05-16T08:31:52.359Z,101330.03
2019-05-16T08:34:21.953Z,101329.44
2019-05-16T08:36:52.881Z,101324.56
2019-05-16T08:39:23.857Z,101324.47
2019-05-16T08:41:54.906Z,101328.55
2019-05-16T08:44:26.188Z,101322.02
2019-05-16T08:46:58.275Z,101325.44
2019-05-16T08:49:30.774Z,101320.90
2019-05-16T08:52:01.943Z,101315.06
2019-05-16T08:54:32.947Z,101319.93
2019-05-16T08:57:25.560Z,101310.33
2019-05-16T08:59:36.767Z,101303.69
2019-05-16T09:02:12.049Z,101301.01
2019-05-16T09:04:44.141Z,101301.24
2019-05-16T09:07:14.228Z,101283.51
2019-05-16T09:09:51.156Z,101287.70
2019-05-16T09:12:18.205Z,101284.44
2019-05-16T09:14:49.476Z,101274.80
2019-05-16T09:17:21.073Z,101267.39
2019-05-16T09:19:52.406Z,101266.41
2019-05-16T09:22:23.338Z,101265.34
2019-05-16T09:24:57.413Z,101256.27
2019-05-16T09:27:27.676Z,101243.64
2019-05-16T09:29:58.621Z,101251.25
2019-05-16T09:35:01.177Z,101253.73
2019-05-16T09:37:29.314Z,101249.23
2019-05-16T09:40:00.327Z,101244.84
2019-05-16T09:42:31.465Z,101248.88
2019-05-16T09:45:02.656Z,101251.25
2019-05-16T09:47:33.600Z,101243.02
2019-05-16T09:50:06.879Z,101239.70
2019-05-16T09:52:38.115Z,101246.83
2019-05-16T09:55:09.179Z,101244.45
2019-05-16T09:57:40.260Z,101240.98
2019-05-16T10:02:41.042Z,101241.02
2019-05-16T10:05:13.509Z,101248.88
2019-05-16T10:07:47.004Z,101245.51
2019-05-16T10:10:17.651Z,101244.13
2019-05-16T10:12:48.824Z,101239.30
2019-05-16T10:15:19.857Z,101242.23
2019-05-16T10:17:50.956Z,101238.79
2019-05-16T10:20:22.273Z,101245.67
2019-05-16T10:22:53.831Z,101233.80
2019-05-16T10:25:27.721Z,101239.48
2019-05-16T10:27:58.179Z,101234.31
2019-05-16T10:30:29.112Z,101226.02
2019-05-16T10:33:01.002Z,101221.06
2019-05-16T10:35:32.271Z,101222.26
2019-05-16T10:38:03.315Z,101212.13
2019-05-16T10:40:36.663Z,101215.33
2019-05-16T10:43:07.591Z,101216.42
2019-05-16T10:45:38.753Z,101209.02
2019-05-16T10:48:10.063Z,101207.80
2019-05-16T10:50:41.164Z,101209.67
2019-05-16T10:53:28.432Z,101205.41
2019-05-16T10:55:47.405Z,101203.62
2019-05-16T10:58:35.086Z,101198.31
2019-05-16T11:01:19.515Z,101192.09
2019-05-16T11:03:23.637Z,101201.34
2019-05-16T11:06:03.079Z,101197.39
2019-05-16T11:08:28.035Z,101192.65
2019-05-16T11:10:59.075Z,101197.25
2019-05-16T11:13:30.138Z,101191.77
2019-05-16T11:16:01.128Z,101188.34
2019-05-16T11:18:32.002Z,101187.39
2019-05-16T11:21:03.113Z,101189.02
2019-05-16T11:23:36.585Z,101191.02
2019-05-16T11:26:06.857Z,101182.14
2019-05-16T11:28:37.880Z,101180.11
2019-05-16T11:31:08.877Z,101183.89
2019-05-16T11:33:39.892Z,101174.70
2019-05-16T11:36:12.913Z,101174.00
2019-05-16T11:38:43.463Z,101166.54
2019-05-16T11:41:16.570Z,101171.25
2019-05-16T11:43:47.476Z,101166.66
2019-05-16T11:46:18.641Z,101167.93
2019-05-16T11:48:49.666Z,101168.66
2019-05-16T11:51:20.852Z,101156.45
2019-05-16T11:53:51.871Z,101149.00
2019-05-16T11:56:22.922Z,101145.45
2019-05-16T11:58:53.915Z,101141.58
2019-05-16T12:01:27.295Z,101144.47
2019-05-16T12:03:59.911Z,101141.58
2019-05-16T12:06:31.021Z,101143.27
2019-05-16T12:09:02.116Z,101138.47
2019-05-16T12:11:33.062Z,101142.20
2019-05-16T12:14:04.041Z,101132.11
2019-05-16T12:16:35.055Z,101140.95
2019-05-16T12:19:06.848Z,101138.22
2019-05-16T12:21:38.389Z,101141.17
2019-05-16T12:24:09.331Z,101142.41
2019-05-16T12:27:11.816Z,101136.52
2019-05-16T12:32:51.431Z,101145.76
2019-05-16T12:36:17.575Z,101135.73
2019-05-16T12:42:31.937Z,101139.03
2019-05-16T13:07:09.985Z,101105.00
2019-05-16T13:09:41.109Z,101095.20
2019-05-16T13:12:12.136Z,101082.40
2019-05-16T13:14:43.143Z,101082.46
2019-05-16T13:17:16.537Z,101074.16
2019-05-16T13:19:48.275Z,101068.20
2019-05-16T13:22:19.737Z,101063.97
2019-05-16T13:24:50.815Z,101060.67
2019-05-16T13:27:23.191Z,101057.92
2019-05-16T13:29:54.580Z,101049.80
2019-05-16T13:32:27.073Z,101044.74
2019-05-16T13:34:59.214Z,101038.59
2019-05-16T13:37:29.876Z,101023.31
2019-05-16T13:40:01.196Z,101019.73
2019-05-16T13:42:32.645Z,101017.49
2019-05-16T13:45:07.610Z,101008.77
2019-05-16T13:47:38.606Z,101005.57
2019-05-16T13:50:12.073Z,101008.69
2019-05-16T13:52:42.448Z,101003.21
2019-05-16T13:55:13.452Z,101000.83
2019-05-16T13:57:44.453Z,101002.95
2019-05-16T14:00:17.375Z,100993.80
2019-05-16T14:02:48.350Z,100989.31
2019-05-16T14:05:19.354Z,100983.31
2019-05-16T14:07:57.096Z,100989.05
2019-05-16T14:10:29.725Z,100984.55
2019-05-16T14:12:59.818Z,100984.48
2019-05-16T14:15:36.531Z,100993.55
2019-05-16T14:18:07.954Z,100988.92
2019-05-16T14:20:39.158Z,100987.17
2019-05-16T14:23:11.205Z,100983.23
2019-05-16T14:25:43.106Z,100975.16
2019-05-16T14:28:16.954Z,100979.90
2019-05-16T14:30:47.024Z,100978.25
2019-05-16T14:33:18.040Z,100969.84
2019-05-16T14:35:49.127Z,100963.02
2019-05-16T14:38:20.321Z,100968.07
2019-05-16T14:40:51.630Z,100963.58
2019-05-16T14:43:22.684Z,100966.98
2019-05-16T14:45:54.596Z,100960.73
2019-05-16T14:48:27.898Z,100956.28
2019-05-16T14:50:58.289Z,100947.66
2019-05-16T14:53:29.324Z,100943.97
2019-05-16T14:56:00.343Z,100941.83
2019-05-16T14:58:31.400Z,100947.16
2019-05-16T15:01:02.618Z,100942.76
2019-05-16T15:03:40.324Z,100932.53
2019-05-16T15:06:18.199Z,100932.25
2019-05-16T15:08:56.583Z,100941.13
2019-05-16T15:11:29.437Z,100939.41
2019-05-16T15:14:01.993Z,100933.55
2019-05-16T15:16:33.174Z,100924.66
2019-05-16T15:19:04.475Z,100930.07
2019-05-16T15:21:42.312Z,100916.66
2019-05-16T15:24:14.107Z,100913.27
2019-05-16T15:26:48.883Z,100916.94
2019-05-16T15:29:23.709Z,100916.80
2019-05-16T15:31:54.543Z,100904.22
2019-05-16T15:37:03.202Z,100896.53
2019-05-16T15:39:37.373Z,100894.97
2019-05-16T15:44:39.980Z,100884.05
2019-05-16T15:49:40.370Z,100876.99
2019-05-16T15:52:11.470Z,100873.06
2019-05-16T15:59:40.213Z,100869.98
2019-05-16T16:02:14.000Z,100872.34
2019-05-16T16:04:47.589Z,100866.18
2019-05-16T16:07:21.108Z,100866.47
2019-05-16T16:12:23.262Z,100865.20
2019-05-16T16:17:31.527Z,100861.95
2019-05-16T16:22:37.529Z,100857.57
2019-05-16T16:25:09.186Z,100854.03
2019-05-16T16:27:44.162Z,100857.42
2019-05-16T16:30:18.454Z,100855.33
2019-05-16T16:35:17.502Z,100848.45
2019-05-16T16:40:18.826Z,100841.01
2019-05-16T16:50:18.116Z,100829.15
2019-05-16T16:52:50.079Z,100828.94
2019-05-16T17:00:22.949Z,100821.09
2019-05-16T17:05:23.315Z,100824.23
2019-05-16T17:07:57.503Z,100819.48
2019-05-16T17:10:47.814Z,100820.66
2019-05-16T17:15:50.809Z,100814.03
2019-05-16T17:20:51.595Z,100811.16
2019-05-16T17:25:51.824Z,100811.53
2019-05-16T17:28:24.696Z,100804.73
2019-05-16T17:30:58.847Z,100809.48
2019-05-16T17:33:30.692Z,100801.73
2019-05-16T17:36:21.259Z,100802.34
2019-05-16T17:38:52.963Z,100805.33
2019-05-16T17:41:27.189Z,100798.99
2019-05-16T17:44:18.612Z,100793.37
2019-05-16T17:49:30.137Z,100797.88
2019-05-16T17:51:49.567Z,100790.52
2019-05-16T17:56:50.569Z,100787.09
2019-05-16T18:01:56.929Z,100784.09
2019-05-16T18:07:02.260Z,100792.56
2019-05-16T18:10:04.534Z,100786.93
2019-05-16T18:12:41.406Z,100785.08
2019-05-16T18:15:14.036Z,100781.39
2019-05-16T18:20:26.577Z,100781.05
2019-05-16T18:23:06.982Z,100778.21
2019-05-16T18:25:36.983Z,100779.78
2019-05-16T18:28:08.198Z,100777.66
2019-05-16T18:30:39.072Z,100783.04
2019-05-16T18:33:10.256Z,100774.44
2019-05-16T18:35:41.428Z,100774.91
2019-05-16T18:38:12.860Z,100764.89
2019-05-16T18:40:44.269Z,100769.94
2019-05-16T18:43:16.619Z,100770.22
2019-05-16T18:45:47.877Z,100757.88
2019-05-16T18:48:18.889Z,100752.11
2019-05-16T18:50:49.914Z,100746.64
2019-05-16T18:53:20.837Z,100746.95
2019-05-16T18:55:51.933Z,100750.86
2019-05-16T18:58:23.051Z,100748.81
2019-05-16T19:00:54.113Z,100740.76
2019-05-16T19:03:27.093Z,100744.73
2019-05-16T19:05:57.796Z,100738.34
2019-05-16T19:08:28.827Z,100740.81
2019-05-16T19:11:00.224Z,100736.82
2019-05-16T19:13:31.236Z,100737.59
2019-05-16T19:18:31.227Z,100730.27
2019-05-16T19:23:32.497Z,100726.80
2019-05-16T19:28:36.768Z,100728.21
2019-05-16T19:31:07.317Z,100725.45
2019-05-16T19:33:41.231Z,100731.48
2019-05-16T19:36:12.320Z,100734.58
2019-05-16T19:38:46.626Z,100723.82
2019-05-16T19:41:19.364Z,100728.39
2019-05-16T19:43:50.476Z,100724.66
2019-05-16T19:46:23.461Z,100725.30
2019-05-16T19:48:54.105Z,100722.61
2019-05-16T19:51:26.913Z,100721.73
2019-05-16T19:53:57.894Z,100720.86
2019-05-16T19:56:28.932Z,100724.83
2019-05-16T19:58:59.938Z,100725.45
2019-05-16T20:01:31.049Z,100718.57
2019-05-16T20:04:02.136Z,100720.34
2019-05-16T20:06:33.196Z,100721.63
2019-05-16T20:09:07.006Z,100715.16
2019-05-16T20:11:37.174Z,100716.09
2019-05-16T20:14:08.549Z,100710.95
2019-05-16T20:19:18.006Z,100708.37
2019-05-16T20:21:58.020Z,100711.06
2019-05-16T20:29:32.208Z,100703.83
2019-05-16T20:32:03.435Z,100706.16
2019-05-16T20:35:49.557Z,100700.30
2019-05-16T20:44:41.388Z,100699.62
2019-05-16T20:47:12.831Z,100698.65
2019-05-16T20:49:43.959Z,100701.58
2019-05-16T20:52:17.310Z,100699.66
2019-05-16T20:54:46.600Z,100696.84
2019-05-16T20:57:21.946Z,100700.67
2019-05-16T21:02:21.136Z,100687.19
2019-05-16T21:04:52.107Z,100693.43
2019-05-16T21:07:23.095Z,100693.74
2019-05-16T21:09:54.087Z,100686.76
2019-05-16T21:12:26.571Z,100689.38
2019-05-16T21:14:58.671Z,100687.78
2019-05-16T21:17:29.908Z,100688.80
2019-05-16T21:20:00.882Z,100683.30
2019-05-16T21:22:31.809Z,100680.78
2019-05-16T21:25:02.846Z,100682.95
2019-05-16T21:27:33.972Z,100688.33
2019-05-16T21:30:07.370Z,100684.45
2019-05-16T21:32:38.188Z,100683.30
2019-05-16T21:35:09.201Z,100680.13
2019-05-16T21:37:40.253Z,100680.55
2019-05-16T21:40:12.095Z,100678.68
2019-05-16T21:42:43.125Z,100674.45
2019-05-16T21:45:14.171Z,100671.96
2019-05-16T21:47:47.050Z,100670.56
2019-05-16T21:50:19.179Z,100664.10
2019-05-16T21:52:50.654Z,100664.37
2019-05-16T21:55:22.256Z,100659.73
2019-05-16T21:57:53.773Z,100660.60
2019-05-16T22:00:37.492Z,100658.48
2019-05-16T22:03:08.259Z,100656.98
2019-05-16T22:05:39.287Z,100656.12
2019-05-16T22:08:11.888Z,100657.04
2019-05-16T22:10:43.111Z,100657.17
2019-05-16T22:13:14.093Z,100646.56
2019-05-16T22:15:46.423Z,100648.20
2019-05-16T22:18:17.549Z,100646.69
2019-05-16T22:20:49.395Z,100644.72
2019-05-16T22:23:20.759Z,100646.28
2019-05-16T22:25:51.999Z,100641.74
2019-05-16T22:28:23.269Z,100643.83
2019-05-16T22:30:58.133Z,100639.85
2019-05-16T22:33:27.830Z,100633.53
2019-05-16T22:35:58.763Z,100627.63
2019-05-16T22:38:29.689Z,100630.30
2019-05-16T22:41:01.028Z,100630.23
2019-05-16T22:43:31.782Z,100628.95
2019-05-16T22:46:02.947Z,100631.39
2019-05-16T22:48:33.976Z,100631.67
2019-05-16T22:51:07.173Z,100627.91
2019-05-16T22:53:38.330Z,100623.23
2019-05-16T22:56:09.235Z,100617.72
2019-05-16T22:58:40.251Z,100619.16
2019-05-16T23:01:11.239Z,100618.80
2019-05-16T23:03:42.267Z,100610.34
2019-05-16T23:06:13.267Z,100614.10
2019-05-16T23:08:44.539Z,100605.09
2019-05-16T23:11:16.344Z,100596.11
2019-05-16T23:13:48.740Z,100597.56
2019-05-16T23:16:19.657Z,100602.97
2019-05-16T23:18:50.630Z,100602.04
2019-05-16T23:21:21.680Z,100604.61
2019-05-16T23:23:52.658Z,100600.57
2019-05-16T23:26:26.902Z,100603.93
2019-05-16T23:28:58.068Z,100600.90
2019-05-16T23:31:28.992Z,100598.21
2019-05-16T23:33:59.877Z,100591.70
2019-05-16T23:36:36.836Z,100586.94
2019-05-16T23:39:08.412Z,100595.00
2019-05-16T23:41:39.390Z,100595.53
2019-05-16T23:44:10.367Z,100590.89
2019-05-16T23:46:41.384Z,100588.51
2019-05-16T23:49:12.226Z,100583.05
2019-05-16T23:51:43.178Z,100581.54
2019-05-16T23:54:14.167Z,100578.23
2019-05-16T23:56:46.567Z,100580.25
2019-05-16T23:59:17.519Z,100580.52
